Time;durP1;ratioP1;P1;durP2;ratioP2;P2;SDS_P1;SDS_P2;PMS_P1;PMS_P2;Temp;Humidity;BMP_temperature;BMP_pressure;BME280_temperature;BME280_humidity;BME280_pressure;Samples;Min_cycle;Max_cycle;Signal;HPM_P1;HPM_P2
2021/10/31 00:00:03;;;;;;;7.70;4.30;;;10.90;99.90;;;9.39;100.00;100300.97;2567853;30;137563;-39
2021/10/31 00:02:38;;;;;;;8.20;4.50;;;10.90;99.90;;;9.42;100.00;100305.97;2567658;30;136783;-39
2021/10/31 00:05:08;;;;;;;6.93;4.35;;;10.90;99.90;;;9.39;100.00;100314.59;2567631;30;138403;-39
2021/10/31 00:07:36;;;;;;;7.43;4.32;;;10.90;99.90;;;9.31;100.00;100308.34;2567250;30;137420;-39
2021/10/31 00:10:11;;;;;;;7.28;4.13;;;10.90;99.90;;;9.33;100.00;100310.84;2568709;30;137447;-39
2021/10/31 00:12:39;;;;;;;6.63;3.97;;;10.90;99.90;;;9.25;100.00;100309.19;2566681;30;139074;-39
2021/10/31 00:15:07;;;;;;;;;;;10.80;99.90;;;9.27;100.00;100315.25;2567794;30;137913;-39
2021/10/31 00:17:35;;;;;;;8.38;4.25;;;10.80;99.90;;;9.28;100.00;100316.09;2567908;30;136796;-39
2021/10/31 00:20:08;;;;;;;;;;;10.80;99.90;;;9.28;100.00;100318.81;2567924;30;138200;-39
2021/10/31 00:22:35;;;;;;;6.03;4.07;;;10.80;99.90;;;9.26;100.00;100321.75;2566821;30;137605;-39
2021/10/31 00:25:04;;;;;;;8.07;4.00;;;10.80;99.90;;;9.24;100.00;100312.97;2568812;30;138155;-39
2021/10/31 00:27:31;;;;;;;7.45;3.83;;;10.80;99.90;;;9.23;100.00;100319.47;2567299;30;138327;-39
2021/10/31 00:29:59;;;;;;;6.30;3.78;;;10.80;99.90;;;9.23;100.00;100319.47;2567934;30;139409;-39
2021/10/31 00:32:26;;;;;;;7.57;3.60;;;10.80;99.90;;;9.25;100.00;100321.97;2567468;30;137526;-38
2021/10/31 00:34:55;;;;;;;5.22;3.30;;;10.70;99.90;;;9.24;100.00;100323.84;2568025;30;138297;-39
2021/10/31 00:37:23;;;;;;;5.10;3.15;;;10.80;99.90;;;9.23;100.00;100319.47;2566931;30;137122;-39
2021/10/31 00:39:51;;;;;;;6.95;3.10;;;10.80;99.90;;;9.18;100.00;100316.56;2567838;30;138335;-39
2021/10/31 00:42:18;;;;;;;5.75;3.30;;;10.70;99.90;;;9.17;100.00;100314.88;2568226;30;137411;-39
2021/10/31 00:44:46;;;;;;;4.93;2.60;;;10.70;99.90;;;9.13;100.00;100319.91;2567918;30;136780;-39
2021/10/31 00:47:14;;;;;;;5.50;2.72;;;10.70;99.90;;;9.11;100.00;100318.47;2567704;30;136986;-39
2021/10/31 00:49:41;;;;;;;5.53;2.83;;;10.60;99.90;;;9.10;100.00;100317.63;2568127;30;137457;-39
2021/10/31 00:52:15;;;;;;;5.95;3.10;;;10.60;99.90;;;9.11;100.00;100323.91;2568011;30;137507;-39
2021/10/31 00:54:43;;;;;;;5.88;2.67;;;10.60;99.90;;;9.04;100.00;100316.63;2565433;30;137977;-39
2021/10/31 00:57:11;;;;;;;;;;;10.60;99.90;;;9.09;100.00;100323.31;2568231;30;138119;-39
2021/10/31 00:59:39;;;;;;;5.07;2.67;;;10.60;99.90;;;9.05;100.00;100314.72;2567822;30;137429;-39
2021/10/31 01:02:11;;;;;;;4.15;2.35;;;10.60;99.90;;;9.05;100.00;100312.00;2566473;30;138267;-39
2021/10/31 01:04:53;;;;;;;4.35;2.42;;;10.60;99.90;;;9.01;100.00;100317.03;2568559;30;138434;-39
2021/10/31 01:07:46;;;;;;;5.63;2.67;;;10.60;99.90;;;9.00;100.00;100323.50;2568619;30;138317;-39
2021/10/31 01:10:27;;;;;;;4.50;2.83;;;10.50;99.90;;;8.96;100.00;100307.84;2564458;30;137879;-39
2021/10/31 01:13:38;;;;;;;6.57;2.58;;;10.50;99.90;;;8.91;100.00;100308.47;2568193;30;137313;-39
2021/10/31 01:16:52;;;;;;;4.70;2.38;;;10.50;99.90;;;8.88;100.00;100317.91;2567515;30;139461;-39
2021/10/31 01:19:53;;;;;;;4.78;2.40;;;10.50;99.90;;;8.82;100.00;100321.47;2567077;30;137553;-39
2021/10/31 01:22:50;;;;;;;6.95;2.50;;;10.40;99.90;;;8.77;100.00;100324.00;2567029;30;137718;-39
2021/10/31 01:26:19;;;;;;;4.25;2.45;;;10.40;99.90;;;8.75;100.00;100324.25;2568125;30;138155;-39
2021/10/31 01:29:01;;;;;;;4.32;2.30;;;10.30;99.90;;;8.74;100.00;100313.56;2567490;30;137372;-38
2021/10/31 01:32:06;;;;;;;4.50;2.15;;;10.30;99.90;;;8.73;100.00;100318.16;2567966;30;137085;-39
2021/10/31 01:35:22;;;;;;;5.68;2.35;;;10.30;99.90;;;8.69;100.00;100321.53;2567427;30;137550;-39
2021/10/31 01:38:21;;;;;;;5.07;2.17;;;10.30;99.90;;;8.67;100.00;100329.88;2569077;30;136906;-39
2021/10/31 01:41:00;;;;;;;5.53;2.30;;;10.20;99.90;;;8.63;100.00;100334.94;2568001;30;137613;-39
2021/10/31 01:44:07;;;;;;;5.10;2.10;;;10.20;99.90;;;8.59;100.00;100330.94;2567685;30;137293;-39
2021/10/31 01:47:00;;;;;;;6.45;2.08;;;10.20;99.90;;;8.54;100.00;100335.34;2568172;30;138192;-39
2021/10/31 01:49:51;;;;;;;5.35;2.15;;;10.10;99.90;;;8.52;100.00;100337.44;2567998;30;137642;-38
2021/10/31 01:52:33;;;;;;;6.40;2.88;;;10.10;99.90;;;8.46;100.00;100334.47;2567379;30;139060;-39
2021/10/31 01:55:07;;;;;;;7.38;2.83;;;10.10;99.90;;;8.41;100.00;100341.59;2568115;30;137680;-39
2021/10/31 01:57:44;;;;;;;7.40;3.85;;;10.00;99.90;;;8.37;100.00;100338.47;2568336;30;139019;-39
2021/10/31 02:00:15;;;;;;;8.57;4.45;;;9.90;99.90;;;8.31;100.00;100342.03;2568236;30;137423;-39
2021/10/31 02:02:46;;;;;;;12.27;7.25;;;9.90;99.90;;;8.26;100.00;100345.38;2569531;30;137387;-39
2021/10/31 02:05:17;;;;;;;10.73;6.80;;;9.90;99.90;;;8.21;100.00;100343.25;2567350;30;138587;-39
2021/10/31 02:08:02;;;;;;;13.48;8.55;;;9.80;99.90;;;8.20;100.00;100357.06;2568280;30;138332;-39
2021/10/31 02:10:33;;;;;;;17.92;10.65;;;9.80;99.90;;;8.12;100.00;100360.81;2565332;30;137419;-39
2021/10/31 02:13:03;;;;;;;13.68;8.85;;;9.70;99.90;;;8.11;100.00;100366.47;2568234;30;139233;-39
2021/10/31 02:15:33;;;;;;;11.77;8.10;;;9.70;99.90;;;8.08;100.00;100356.84;2566395;30;137591;-39
2021/10/31 02:18:02;;;;;;;13.40;8.52;;;9.70;99.90;;;8.04;100.00;100353.69;2566033;30;138010;-39
2021/10/31 02:20:30;;;;;;;12.05;8.25;;;9.70;99.90;;;8.01;100.00;100348.69;2567774;30;137140;-39
2021/10/31 02:23:01;;;;;;;13.35;7.22;;;9.60;99.90;;;8.00;100.00;100354.34;2567027;30;136907;-38
2021/10/31 02:25:30;;;;;;;13.23;7.45;;;9.60;99.90;;;7.97;100.00;100357.47;2567597;30;137699;-39
2021/10/31 02:27:58;;;;;;;10.02;6.43;;;9.60;99.90;;;7.92;100.00;100355.38;2567011;30;137161;-39
2021/10/31 02:30:25;;;;;;;10.52;6.63;;;9.50;99.90;;;7.95;100.00;100351.38;2566753;30;137314;-39
2021/10/31 02:32:53;;;;;;;8.50;5.35;;;9.50;99.90;;;7.98;100.00;100356.44;2567057;30;139081;-39
2021/10/31 02:35:22;;;;;;;9.40;5.78;;;9.50;99.90;;;8.00;100.00;100362.50;2567545;30;137988;-39
2021/10/31 02:37:51;;;;;;;10.63;5.97;;;9.60;99.90;;;8.00;100.00;100357.06;2567223;30;139038;-39
2021/10/31 02:40:22;;;;;;;10.25;5.80;;;9.50;99.90;;;7.98;100.00;100354.53;2567654;30;136778;-38
2021/10/31 02:42:51;;;;;;;10.07;5.22;;;9.50;99.90;;;7.99;100.00;100358.94;2568541;30;137285;-39
2021/10/31 02:45:19;;;;;;;7.47;4.50;;;9.60;99.90;;;8.00;100.00;100343.47;2567271;30;137475;-39
2021/10/31 02:47:56;;;;;;;7.75;4.45;;;9.60;99.90;;;8.02;100.00;100366.66;2567166;30;137384;-39
2021/10/31 02:50:31;;;;;;;6.43;4.05;;;9.60;99.90;;;8.00;100.00;100363.31;2573731;30;137683;-39
2021/10/31 02:53:42;;;;;;;9.43;4.80;;;9.60;99.90;;;8.00;100.00;100362.50;2569534;30;138025;-39
2021/10/31 02:56:40;;;;;;;9.27;4.68;;;9.60;99.90;;;7.99;100.00;100367.06;2568714;30;137477;-39
2021/10/31 02:59:45;;;;;;;8.80;4.30;;;9.60;99.90;;;7.99;100.00;100363.53;2568927;30;138345;-39
2021/10/31 03:02:16;;;;;;;8.45;4.50;;;9.60;99.90;;;7.97;100.00;100373.78;2568690;30;137465;-40
2021/10/31 03:04:45;;;;;;;7.70;4.15;;;9.60;99.90;;;7.94;100.00;100366.88;2568914;30;137876;-39
2021/10/31 03:07:14;;;;;;;9.45;4.60;;;9.50;99.90;;;7.90;100.00;100357.47;2568365;30;137484;-39
2021/10/31 03:09:47;;;;;;;7.85;3.90;;;9.50;99.90;;;7.91;100.00;100364.56;2568763;30;139489;-39
2021/10/31 03:12:15;;;;;;;7.32;4.30;;;9.50;99.90;;;7.86;100.00;100357.03;2568454;30;137317;-39
2021/10/31 03:14:43;;;;;;;7.80;4.05;;;9.50;99.90;;;7.79;100.00;100350.75;2568325;30;138185;-40
2021/10/31 03:17:11;;;;;;;6.93;4.10;;;9.40;99.90;;;7.82;100.00;100355.78;2568842;30;137485;-39
2021/10/31 03:19:40;;;;;;;7.32;4.22;;;9.40;99.90;;;7.71;100.00;100340.91;2569612;30;139152;-39
2021/10/31 03:22:08;;;;;;;7.20;3.72;;;9.40;99.90;;;7.79;100.00;100350.75;2569052;30;138351;-40
2021/10/31 03:24:36;;;;;;;7.03;3.80;;;9.40;99.90;;;7.77;100.00;100341.97;2567802;30;138234;-39
2021/10/31 03:27:05;;;;;;;7.85;3.83;;;9.40;99.90;;;7.85;100.00;100344.50;2568071;30;138263;-39
2021/10/31 03:29:33;;;;;;;9.38;4.20;;;9.40;99.90;;;7.88;100.00;100344.06;2569914;30;139060;-40
2021/10/31 03:32:01;;;;;;;7.20;3.63;;;9.50;99.90;;;7.90;100.00;100336.56;2567971;30;137194;-39
2021/10/31 03:34:28;;;;;;;7.38;4.18;;;9.50;99.90;;;7.95;100.00;100341.38;2568819;30;138378;-39
2021/10/31 03:36:56;;;;;;;6.43;3.38;;;9.50;99.90;;;8.00;100.00;100340.75;2567263;30;138193;-40
2021/10/31 03:39:23;;;;;;;6.22;3.67;;;9.50;99.90;;;8.01;100.00;100356.03;2569087;30;138288;-40
2021/10/31 03:41:51;;;;;;;7.38;3.25;;;9.60;99.90;;;8.01;100.00;100358.72;2568262;30;136674;-39
2021/10/31 03:44:20;;;;;;;6.80;3.10;;;9.60;99.90;;;8.05;100.00;100352.66;2567982;30;137420;-39
2021/10/31 03:46:47;;;;;;;6.60;3.20;;;9.60;99.90;;;8.07;100.00;100349.75;2566087;30;137657;-39
2021/10/31 03:49:16;;;;;;;8.68;3.65;;;9.60;99.90;;;8.07;100.00;100350.56;2568554;30;137330;-39
2021/10/31 03:51:44;;;;;;;6.85;3.30;;;9.60;99.90;;;8.06;100.00;100351.63;2568637;30;138234;-39
2021/10/31 03:54:13;;;;;;;5.10;2.92;;;9.60;99.90;;;8.03;100.00;100345.78;2569862;30;138989;-39
2021/10/31 03:56:40;;;;;;;6.63;3.33;;;9.60;99.90;;;8.03;100.00;100341.16;2569064;30;137526;-39
2021/10/31 03:59:08;;;;;;;6.22;3.42;;;9.60;99.90;;;8.03;100.00;100341.16;2566439;30;138717;-39
2021/10/31 04:01:35;;;;;;;5.47;3.10;;;9.60;99.90;;;8.04;100.00;100345.56;2569818;30;137352;-39
2021/10/31 04:04:03;;;;;;;6.63;3.60;;;9.60;99.90;;;8.07;100.00;100345.13;2568724;30;138424;-39
2021/10/31 04:06:31;;;;;;;;;;;9.60;99.90;;;8.08;100.00;100337.84;2568823;30;138469;-39
2021/10/31 04:08:58;;;;;;;6.40;3.75;;;9.60;99.90;;;8.09;100.00;100339.50;2569050;30;138230;-39
2021/10/31 04:11:26;;;;;;;7.90;4.10;;;9.70;99.90;;;8.14;100.00;100341.63;2571230;30;137568;-39
2021/10/31 04:13:54;;;;;;;6.97;3.80;;;9.70;99.90;;;8.13;100.00;100335.31;2568879;30;137208;-39
2021/10/31 04:16:22;;;;;;;8.80;3.92;;;9.70;99.90;;;8.16;100.00;100337.63;2570471;30;137569;-39
2021/10/31 04:18:49;;;;;;;6.07;3.90;;;9.70;99.90;;;8.21;100.00;100337.00;2568724;30;138996;-39
2021/10/31 04:21:17;;;;;;;6.60;3.45;;;9.80;99.90;;;8.21;100.00;100332.38;2567491;30;137762;-39
2021/10/31 04:23:44;;;;;;;7.05;3.85;;;9.80;99.90;;;8.21;100.00;100337.81;2569963;30;136856;-39
2021/10/31 04:26:12;;;;;;;6.60;3.92;;;9.80;99.90;;;8.19;100.00;100337.19;2569430;30;137700;-40
2021/10/31 04:28:40;;;;;;;7.00;3.83;;;9.70;99.90;;;8.16;100.00;100334.91;2569755;30;138217;-39
2021/10/31 04:31:07;;;;;;;7.20;4.28;;;9.70;99.90;;;8.13;100.00;100332.59;2569481;30;137427;-39
2021/10/31 04:33:36;;;;;;;7.65;3.85;;;9.70;99.90;;;8.10;100.00;100330.31;2570443;30;138942;-39
2021/10/31 04:36:05;;;;;;;7.72;4.65;;;9.70;99.90;;;8.12;100.00;100330.13;2569690;30;137498;-39
2021/10/31 04:38:33;;;;;;;7.55;4.32;;;9.70;99.90;;;8.13;100.00;100324.44;2567870;30;138548;-39
2021/10/31 04:41:02;;;;;;;8.75;4.55;;;9.70;99.90;;;8.11;100.00;100325.72;2568546;30;137761;-39
2021/10/31 04:43:30;;;;;;;9.90;4.40;;;9.70;99.90;;;8.12;100.00;100317.34;2568519;30;137357;-39
2021/10/31 04:45:57;;;;;;;8.05;4.63;;;9.70;99.90;;;8.10;100.00;100322.16;2569264;30;137401;-39
2021/10/31 04:48:25;;;;;;;8.23;4.38;;;9.70;99.90;;;8.10;100.00;100321.34;2570493;30;139176;-40
2021/10/31 04:50:53;;;;;;;7.70;4.53;;;9.70;99.90;;;8.09;100.00;100316.91;2568538;30;138124;-40
2021/10/31 04:53:21;;;;;;;8.48;5.15;;;9.70;99.90;;;8.06;100.00;100321.72;2568673;30;138945;-40
2021/10/31 04:55:48;;;;;;;7.03;4.53;;;9.60;99.90;;;8.07;100.00;100325.28;2569117;30;137463;-39
2021/10/31 04:58:16;;;;;;;8.30;4.80;;;9.60;99.90;;;8.01;100.00;100320.69;2567584;30;138311;-39
2021/10/31 05:00:43;;;;;;;6.15;4.15;;;9.60;99.90;;;8.05;100.00;100316.53;2569278;30;137421;-39
2021/10/31 05:03:11;;;;;;;6.65;4.40;;;9.60;99.90;;;8.08;100.00;100313.38;2570994;30;138096;-41
2021/10/31 05:05:38;;;;;;;7.93;5.00;;;9.60;99.90;;;8.12;100.00;100316.53;2569252;30;137400;-39
2021/10/31 05:08:06;;;;;;;7.85;4.50;;;9.70;99.90;;;8.06;100.00;100304.59;2569081;30;138366;-39
2021/10/31 05:10:33;;;;;;;9.02;5.38;;;9.70;99.90;;;8.08;100.00;100302.50;2569470;30;137003;-39
2021/10/31 05:13:01;;;;;;;8.15;5.20;;;9.70;99.90;;;8.10;100.00;100300.41;2569109;30;138106;-39
2021/10/31 05:15:28;;;;;;;10.60;5.55;;;9.70;99.90;;;8.12;100.00;100298.31;2565885;30;137487;-39
2021/10/31 05:17:57;;;;;;;12.38;5.07;;;9.70;99.90;;;8.13;100.00;100300.00;2570230;30;137706;-40
2021/10/31 05:20:24;;;;;;;10.73;5.25;;;9.70;99.90;;;8.10;100.00;100294.16;2569991;30;138157;-40
2021/10/31 05:22:52;;;;;;;9.02;5.82;;;9.70;99.90;;;8.16;100.00;100302.28;2568084;30;138059;-40
2021/10/31 05:25:19;;;;;;;9.35;6.22;;;9.70;99.90;;;8.17;100.00;100290.38;2569233;30;137062;-39
2021/10/31 05:27:47;;;;;;;9.30;5.65;;;9.70;99.90;;;8.18;100.00;100291.22;2570266;30;138254;-40
2021/10/31 05:30:14;;;;;;;10.60;6.05;;;9.70;99.90;;;8.17;100.00;100290.38;2571013;30;137374;-39
2021/10/31 05:32:42;;;;;;;10.88;6.65;;;9.70;99.90;;;8.21;100.00;100298.97;2569037;30;139062;-39
2021/10/31 05:35:11;;;;;;;;;;;9.80;99.90;;;8.27;100.00;100291.84;2569724;30;137529;-39
2021/10/31 05:37:56;;;;;;;11.35;6.63;;;9.80;99.90;;;8.33;100.00;100289.09;2570046;30;137423;-39
2021/10/31 05:40:25;;;;;;;10.88;6.50;;;9.80;99.90;;;8.35;100.00;100288.91;2566926;30;137645;-39
2021/10/31 05:42:53;;;;;;;10.48;6.88;;;9.90;99.90;;;8.37;100.00;100275.94;2569321;30;137552;-40
2021/10/31 05:45:21;;;;;;;;;;;9.90;99.90;;;8.41;100.00;100287.25;2569808;30;137459;-39
2021/10/31 05:47:52;;;;;;;11.90;6.65;;;9.90;99.90;;;8.46;100.00;100285.53;2571442;30;138606;-40
2021/10/31 05:50:21;;;;;;;11.68;7.30;;;10.00;99.90;;;8.44;100.00;100278.66;2569402;30;137449;-40
2021/10/31 05:52:49;;;;;;;12.85;7.60;;;10.00;99.90;;;8.45;100.00;100273.00;2568559;30;138872;-39
2021/10/31 05:55:18;;;;;;;11.80;7.20;;;10.00;99.90;;;8.46;100.00;100271.13;2567218;30;137596;-40
2021/10/31 05:57:47;;;;;;;12.15;7.20;;;10.00;99.90;;;8.47;100.00;100270.91;2568894;30;139319;-40
2021/10/31 06:00:17;;;;;;;10.70;6.63;;;10.00;99.90;;;8.48;100.00;100267.13;2569329;30;138221;-40
2021/10/31 06:02:46;;;;;;;11.80;7.13;;;10.00;99.90;;;8.48;100.00;100261.69;2569047;30;138762;-40
2021/10/31 06:05:16;;;;;;;12.88;7.43;;;10.00;99.90;;;8.48;100.00;100260.88;2566365;30;138101;-39
2021/10/31 06:07:44;;;;;;;11.52;7.38;;;10.00;99.90;;;8.47;100.00;100257.31;2570496;30;139315;-39
2021/10/31 06:10:13;;;;;;;10.15;6.55;;;10.00;99.90;;;8.48;100.00;100250.81;2567819;30;137678;-40
2021/10/31 06:12:48;;;;;;;10.85;6.80;;;10.00;99.90;;;8.53;100.00;100255.66;2571796;30;137468;-40
2021/10/31 06:15:21;;;;;;;9.88;6.53;;;10.00;99.90;;;8.56;100.00;100259.84;2566344;30;137457;-40
2021/10/31 06:17:49;;;;;;;12.52;6.95;;;10.10;99.90;;;8.54;100.00;100249.16;2569623;30;138854;-39
2021/10/31 06:20:17;;;;;;;12.38;7.22;;;10.10;99.90;;;8.52;100.00;100250.44;2568032;30;137846;-39
2021/10/31 06:22:45;;;;;;;;;;;10.10;99.90;;;8.47;100.00;100242.88;2569808;30;139082;-40
2021/10/31 06:25:13;;;;;;;12.15;6.90;;;10.00;99.90;;;8.42;100.00;100243.50;2568739;30;136921;-39
2021/10/31 06:27:41;;;;;;;11.77;6.40;;;10.10;99.90;;;8.43;100.00;100247.09;2570223;30;137888;-39
2021/10/31 06:30:09;;;;;;;10.30;6.25;;;10.00;99.90;;;8.37;100.00;100243.31;2567661;30;137241;-39
2021/10/31 06:32:38;;;;;;;10.73;6.57;;;10.00;99.90;;;8.40;100.00;100252.94;2567638;30;137529;-39
2021/10/31 06:35:05;;;;;;;11.43;6.55;;;9.90;99.90;;;8.39;100.00;100249.38;2568255;30;137484;-39
2021/10/31 06:37:33;;;;;;;10.15;6.68;;;9.90;99.90;;;8.38;100.00;100249.63;2569918;30;138042;-39
2021/10/31 06:40:01;;;;;;;10.40;6.28;;;9.90;99.90;;;8.38;100.00;100249.63;2568922;30;137103;-40
2021/10/31 06:42:29;;;;;;;11.45;6.57;;;9.90;99.90;;;8.33;100.00;100239.38;2569559;30;139423;-39
2021/10/31 06:44:56;;;;;;;;;;;9.90;99.90;;;8.35;100.00;100234.56;2568741;30;137442;-39
2021/10/31 06:47:24;;;;;;;9.73;6.20;;;9.90;99.90;;;8.39;100.00;100224.91;2567035;30;139542;-40
2021/10/31 06:49:52;;;;;;;10.40;6.68;;;9.90;99.90;;;8.44;100.00;100230.53;2569765;30;137409;-39
2021/10/31 06:52:19;;;;;;;10.77;6.95;;;10.00;99.90;;;8.48;100.00;100230.97;2569292;30;138459;-39
2021/10/31 06:54:47;;;;;;;9.88;6.32;;;10.00;99.90;;;8.49;100.00;100230.78;2567073;30;137591;-39
2021/10/31 06:57:15;;;;;;;10.48;6.47;;;10.00;99.90;;;8.58;100.00;100236.00;2567615;30;137342;-39
2021/10/31 06:59:42;;;;;;;10.75;6.15;;;10.10;99.90;;;8.61;100.00;100228.22;2569373;30;137050;-39
2021/10/31 07:02:10;;;;;;;11.65;6.60;;;10.10;99.90;;;8.66;100.00;100208.56;2570423;30;137684;-39
2021/10/31 07:04:38;;;;;;;10.90;6.43;;;10.20;99.90;;;8.74;100.00;100205.59;2567649;30;137483;-39
2021/10/31 07:07:05;;;;;;;8.98;5.70;;;10.20;99.90;;;8.79;100.00;100210.38;2569784;30;138401;-39
2021/10/31 07:09:33;;;;;;;9.25;5.85;;;10.30;99.90;;;8.85;100.00;100201.34;2566432;30;137024;-39
2021/10/31 07:12:01;;;;;;;;;;;10.30;99.90;;;8.88;100.00;100205.53;2569714;30;138405;-39
2021/10/31 07:14:28;;;;;;;8.50;5.43;;;10.40;99.90;;;8.89;100.00;100199.91;2569428;30;136817;-39
2021/10/31 07:16:56;;;;;;;9.18;5.78;;;10.40;99.90;;;8.92;100.00;100204.91;2568627;30;138513;-39
2021/10/31 07:19:23;;;;;;;7.70;5.10;;;10.40;99.90;;;8.98;100.00;100207.81;2568350;30;136821;-39
2021/10/31 07:21:51;;;;;;;8.85;5.57;;;10.40;99.90;;;9.03;100.00;100203.38;2570148;30;138006;-39
2021/10/31 07:24:19;;;;;;;7.32;4.88;;;10.50;99.90;;;9.11;100.00;100199.56;2569195;30;137367;-38
2021/10/31 07:26:47;;;;;;;8.73;4.97;;;10.60;99.90;;;9.12;100.00;100209.38;2568921;30;137798;-40
2021/10/31 07:29:15;;;;;;;8.25;5.07;;;10.60;99.90;;;9.12;100.00;100200.41;2567132;30;138233;-39
2021/10/31 07:31:46;;;;;;;7.95;5.00;;;10.60;99.90;;;9.11;100.00;100196.00;2568099;30;137814;-40
2021/10/31 07:34:14;;;;;;;6.57;4.47;;;10.60;99.90;;;9.11;100.00;100198.72;2566939;30;137465;-39
2021/10/31 07:36:42;;;;;;;7.43;4.85;;;10.60;99.90;;;9.06;100.00;100193.94;2568515;30;140052;-40
2021/10/31 07:39:11;;;;;;;7.60;4.40;;;10.60;99.90;;;9.08;100.00;100191.81;2566891;30;137212;-39
2021/10/31 07:41:38;;;;;;;7.50;4.43;;;10.60;99.90;;;9.15;100.00;100189.94;2569381;30;137758;-39
2021/10/31 07:44:08;;;;;;;9.32;4.72;;;10.70;99.90;;;9.16;100.00;100191.59;2570471;30;136802;-39
2021/10/31 07:46:36;;;;;;;6.72;4.00;;;10.60;99.90;;;9.15;100.00;100178.19;2571390;30;137527;-39
2021/10/31 07:49:04;;;;;;;6.18;3.70;;;10.60;99.90;;;9.17;100.00;100173.34;2567588;30;137451;-39
2021/10/31 07:51:32;;;;;;;5.68;3.47;;;10.60;99.90;;;9.19;100.00;100176.69;2569337;30;138522;-39
2021/10/31 07:53:59;;;;;;;5.43;3.40;;;10.70;99.90;;;9.25;100.00;100175.00;2569231;30;138472;-39
2021/10/31 07:56:32;;;;;;;5.35;3.42;;;10.70;99.90;;;9.31;100.00;100177.69;2570614;30;139172;-39
2021/10/31 07:58:59;;;;;;;5.07;3.38;;;10.70;99.90;;;9.33;100.00;100177.44;2568814;30;137679;-39
2021/10/31 08:01:27;;;;;;;7.47;3.65;;;10.70;99.90;;;9.39;100.00;100173.81;2569703;30;139303;-39
2021/10/31 08:03:55;;;;;;;5.95;3.10;;;10.80;99.90;;;9.44;100.00;100168.56;2569491;30;136959;-39
2021/10/31 08:06:24;;;;;;;5.13;3.30;;;10.80;99.90;;;9.56;100.00;100168.69;2570144;30;138368;-39
2021/10/31 08:08:52;;;;;;;5.57;3.55;;;10.90;99.90;;;9.57;100.00;100164.91;2568667;30;138259;-39
2021/10/31 08:11:20;;;;;;;6.13;3.45;;;11.00;99.90;;;9.73;100.00;100168.13;2569818;30;138633;-39
2021/10/31 08:13:47;;;;;;;5.57;3.70;;;11.00;99.90;;;9.84;100.00;100161.97;2568901;30;136705;-39
2021/10/31 08:16:16;;;;;;;6.55;4.03;;;11.10;99.90;;;9.97;100.00;100168.31;2567251;30;137796;-39
2021/10/31 08:18:43;;;;;;;5.90;3.83;;;11.30;99.90;;;10.09;100.00;100177.44;2570646;30;136766;-39
2021/10/31 08:21:11;;;;;;;6.85;3.70;;;11.40;99.90;;;10.16;100.00;100178.19;2567837;30;138082;-40
2021/10/31 08:23:39;;;;;;;5.70;3.92;;;11.40;99.90;;;10.27;100.00;100173.91;2569044;30;137502;-39
2021/10/31 08:26:08;;;;;;;6.20;3.53;;;11.50;99.90;;;10.35;100.00;100176.31;2566501;30;137857;-39
2021/10/31 08:28:39;;;;;;;6.40;3.72;;;11.60;99.90;;;10.38;100.00;100175.03;2571113;30;138704;-39
2021/10/31 08:31:07;;;;;;;5.88;3.58;;;11.70;99.90;;;10.42;100.00;100167.25;2570103;30;139316;-39
2021/10/31 08:33:43;;;;;;;6.55;3.85;;;11.70;99.90;;;10.52;100.00;100153.09;2570271;30;137443;-39
2021/10/31 08:36:12;;;;;;;6.85;3.53;;;11.80;99.90;;;10.63;100.00;100150.41;2568167;30;138585;-39
2021/10/31 08:38:40;;;;;;;4.85;3.40;;;11.90;99.90;;;10.72;100.00;100150.94;2568721;30;137535;-39
2021/10/31 08:41:07;;;;;;;6.80;3.90;;;12.00;99.90;;;10.77;100.00;100159.25;2570102;30;138279;-39
2021/10/31 08:43:35;;;;;;;5.75;3.65;;;12.00;99.90;;;10.87;100.00;100150.53;2567358;30;138120;-39
2021/10/31 08:46:03;;;;;;;5.53;3.22;;;12.10;99.90;;;10.99;100.00;100156.03;2569530;30;139216;-39
2021/10/31 08:48:34;;;;;;;6.90;3.90;;;12.20;99.90;;;11.06;99.81;100145.03;2570466;30;137464;-39
2021/10/31 08:51:01;;;;;;;4.43;2.60;;;12.30;99.90;;;11.13;98.79;100151.22;2567132;30;138246;-39
2021/10/31 08:53:29;;;;;;;;;;;12.40;99.90;;;11.16;98.70;100131.63;2568489;30;137448;-39
2021/10/31 08:55:58;;;;;;;4.97;3.03;;;12.40;99.90;;;11.26;98.74;100146.59;2568872;30;139217;-39
2021/10/31 08:58:27;;;;;;;5.57;2.85;;;12.50;99.90;;;11.33;98.21;100139.16;2566537;30;137434;-39
2021/10/31 09:00:54;;;;;;;6.03;2.95;;;12.60;99.90;;;11.42;97.54;100129.56;2567566;30;138730;-39
2021/10/31 09:03:23;;;;;;;5.50;2.83;;;12.70;99.90;;;11.50;97.17;100131.13;2567756;30;137403;-39
2021/10/31 09:05:51;;;;;;;4.72;2.80;;;12.70;99.90;;;11.62;96.46;100131.94;2568083;30;138289;-39
2021/10/31 09:08:19;;;;;;;5.13;2.85;;;12.90;99.90;;;11.72;97.14;100127.81;2567506;30;138619;-39
2021/10/31 09:10:47;;;;;;;;;;;12.90;99.90;;;11.80;96.78;100124.72;2568516;30;138135;-39
2021/10/31 09:13:14;;;;;;;4.32;3.00;;;13.00;99.90;;;11.80;95.78;100116.50;2568352;30;137259;-39
2021/10/31 09:15:42;;;;;;;3.72;2.50;;;13.10;99.90;;;11.84;95.72;100108.69;2567246;30;138484;-39
2021/10/31 09:18:10;;;;;;;4.93;2.70;;;13.10;99.90;;;11.83;95.76;100104.28;2568051;30;136841;-39
2021/10/31 09:20:39;;;;;;;4.95;2.75;;;13.10;99.90;;;11.89;96.20;100101.41;2567469;30;138572;-39
2021/10/31 09:23:07;;;;;;;4.35;2.47;;;13.10;99.90;;;11.92;95.98;100090.00;2568619;30;138463;-39
2021/10/31 09:25:36;;;;;;;4.78;3.03;;;13.20;99.90;;;12.03;95.64;100090.28;2567986;30;138464;-39
2021/10/31 09:28:06;;;;;;;4.60;2.80;;;13.20;99.90;;;12.14;94.13;100085.84;2564774;30;137685;-39
2021/10/31 09:30:38;;;;;;;6.93;2.55;;;13.30;99.90;;;12.26;92.21;100081.19;2567304;30;137487;-39
2021/10/31 09:33:10;;;;;;;5.40;2.50;;;13.40;99.90;;;12.36;93.44;100065.00;2568460;30;137310;-39
2021/10/31 09:35:48;;;;;;;5.15;2.78;;;13.60;99.90;;;12.52;91.83;100066.13;2565879;30;138952;-39
2021/10/31 09:38:19;;;;;;;3.50;2.10;;;13.70;99.90;;;12.73;91.69;100063.78;2569153;30;137743;-39
2021/10/31 09:40:48;;;;;;;4.10;1.85;;;13.80;99.90;;;12.94;92.51;100058.63;2568067;30;137618;-39
2021/10/31 09:43:16;;;;;;;4.53;1.90;;;14.00;99.90;;;13.06;90.79;100064.88;2566881;30;137199;-39
2021/10/31 09:45:44;;;;;;;4.15;1.90;;;14.10;99.90;;;13.18;90.82;100053.03;2568953;30;137415;-39
2021/10/31 09:48:13;;;;;;;3.60;2.08;;;14.30;99.90;;;13.27;89.61;100059.75;2568513;30;137691;-39
2021/10/31 09:50:46;;;;;;;4.13;2.08;;;14.40;99.90;;;13.31;88.88;100060.91;2568614;30;136821;-39
2021/10/31 09:53:21;;;;;;;3.83;1.67;;;14.50;99.90;;;13.33;88.09;100060.66;2568080;30;136820;-39
2021/10/31 09:55:49;;;;;;;3.22;1.83;;;14.50;99.90;;;13.37;88.72;100054.44;2568555;30;138347;-39
2021/10/31 09:58:34;;;;;;;4.70;1.90;;;14.50;99.90;;;13.44;89.16;100058.94;2566510;30;137125;-39
2021/10/31 10:01:25;;;;;;;3.67;1.95;;;14.60;99.90;;;13.38;87.69;100053.34;2568002;30;138203;-39
2021/10/31 10:03:56;;;;;;;3.95;2.38;;;14.60;99.90;;;13.38;87.97;100053.34;2566317;30;137524;-39
2021/10/31 10:06:25;;;;;;;3.78;2.00;;;14.60;99.90;;;13.43;87.81;100047.16;2567985;30;139449;-39
2021/10/31 10:09:20;;;;;;;6.05;2.10;;;14.60;99.90;;;13.49;88.22;100023.38;2568841;30;137650;-39
2021/10/31 10:11:48;;;;;;;3.33;2.00;;;14.70;99.90;;;13.63;86.95;100032.06;2567989;30;138597;-39
2021/10/31 10:14:24;;;;;;;3.15;1.77;;;14.70;99.90;;;13.63;85.95;100024.69;2567178;30;137155;-39
2021/10/31 10:17:17;;;;;;;2.78;1.60;;;14.80;99.90;;;13.77;86.78;100013.34;2568356;30;138144;-39
2021/10/31 10:19:55;;;;;;;3.20;1.73;;;14.90;99.90;;;13.90;87.23;100014.91;2568825;30;137279;-39
2021/10/31 10:22:26;;;;;;;2.60;1.42;;;15.00;99.90;;;13.91;85.92;100006.44;2567541;30;137796;-39
2021/10/31 10:24:59;;;;;;;3.63;1.67;;;15.10;99.90;;;13.93;86.33;100009.75;2568638;30;137130;-39
2021/10/31 10:27:32;;;;;;;3.25;1.70;;;15.10;99.90;;;14.02;85.42;99995.56;2568195;30;138336;-39